Time;durP1;ratioP1;P1;durP2;ratioP2;P2;SDS_P1;SDS_P2;PMS_P1;PMS_P2;Temp;Humidity;BMP_temperature;BMP_pressure;BME280_temperature;BME280_humidity;BME280_pressure;Samples;Min_cycle;Max_cycle;Signal;HPM_P1;HPM_P2
2022/04/20 00:00:44;;;;;;;4.87;4.57;;;7.90;99.90;;;;;;6291443;27;20265;-54
2022/04/20 00:03:48;;;;;;;5.10;4.80;;;7.90;99.90;;;;;;6320724;27;20288;-55
2022/04/20 00:06:51;;;;;;;4.80;4.50;;;7.90;99.90;;;;;;6317813;27;20297;-55
2022/04/20 00:09:55;;;;;;;4.73;4.57;;;7.90;99.90;;;;;;6304500;28;20260;-56
2022/04/20 00:12:58;;;;;;;5.07;4.80;;;8.00;99.90;;;;;;6321770;28;20696;-54
2022/04/20 00:16:01;;;;;;;4.60;4.30;;;8.00;99.90;;;;;;6334287;28;20313;-55
2022/04/20 00:19:05;;;;;;;4.73;4.43;;;8.00;99.90;;;;;;6334695;28;20243;-54
2022/04/20 00:22:08;;;;;;;4.93;4.40;;;8.00;99.90;;;;;;6335662;27;20298;-55
2022/04/20 00:25:11;;;;;;;5.00;4.60;;;8.10;99.90;;;;;;6331692;27;20238;-54
2022/04/20 00:28:14;;;;;;;5.10;4.80;;;8.10;99.90;;;;;;6320457;28;20352;-54
2022/04/20 00:31:18;;;;;;;5.13;4.67;;;8.10;99.90;;;;;;6308714;28;20314;-54
2022/04/20 00:34:23;;;;;;;5.80;4.73;;;8.10;99.90;;;;;;6327154;27;20716;-55
2022/04/20 00:37:25;;;;;;;4.67;4.50;;;8.20;99.90;;;;;;6315294;28;20844;-55
2022/04/20 00:40:28;;;;;;;6.20;4.90;;;8.10;99.90;;;;;;6331907;28;20300;-55
2022/04/20 00:43:31;;;;;;;5.30;4.90;;;8.10;99.90;;;;;;6334461;28;20811;-55
2022/04/20 00:46:34;;;;;;;6.20;5.13;;;8.00;99.90;;;;;;6319581;28;20241;-55
2022/04/20 00:49:41;;;;;;;5.20;5.00;;;8.10;99.90;;;;;;6307177;28;20249;-55
2022/04/20 00:52:44;;;;;;;5.13;4.80;;;8.00;99.90;;;;;;6308411;28;20370;-56
2022/04/20 00:56:04;;;;;;;5.00;4.60;;;8.00;99.90;;;;;;6305050;28;20425;-55
2022/04/20 00:59:07;;;;;;;4.87;4.63;;;8.00;99.90;;;;;;6306936;28;20244;-55
2022/04/20 01:02:10;;;;;;;5.27;4.80;;;8.00;99.90;;;;;;6324634;28;20315;-55
2022/04/20 01:05:14;;;;;;;5.23;4.70;;;8.00;99.90;;;;;;6332097;28;20720;-54
2022/04/20 01:08:17;;;;;;;5.53;5.07;;;7.90;99.90;;;;;;6321040;28;20326;-53
2022/04/20 01:11:19;;;;;;;5.00;4.70;;;7.90;99.90;;;;;;6330273;28;21775;-54
2022/04/20 01:14:22;;;;;;;5.60;5.07;;;7.90;99.90;;;;;;6332949;28;20511;-54
2022/04/20 01:17:25;;;;;;;5.13;4.90;;;8.00;99.90;;;;;;6315609;28;20654;-55
2022/04/20 01:20:31;;;;;;;5.10;4.90;;;7.90;99.90;;;;;;6306626;28;20938;-56
2022/04/20 01:23:34;;;;;;;5.20;4.90;;;7.90;99.90;;;;;;6308107;28;20289;-55
2022/04/20 01:26:39;;;;;;;5.70;4.77;;;7.90;99.90;;;;;;6305813;28;20268;-55
2022/04/20 01:29:42;;;;;;;5.30;5.07;;;7.90;99.90;;;;;;6299831;28;20259;-55
2022/04/20 01:32:45;;;;;;;5.20;4.80;;;7.80;99.90;;;;;;6306255;28;20410;-53
2022/04/20 01:35:49;;;;;;;5.47;5.17;;;7.90;99.90;;;;;;6327697;27;20231;-54
2022/04/20 01:38:52;;;;;;;4.93;4.63;;;7.90;99.90;;;;;;6332230;28;20263;-55
2022/04/20 01:41:55;;;;;;;5.33;4.83;;;7.90;99.90;;;;;;6329618;28;20258;-55
2022/04/20 01:44:58;;;;;;;5.57;5.13;;;7.80;99.90;;;;;;6317654;28;20232;-54
2022/04/20 01:48:01;;;;;;;5.67;5.00;;;7.90;99.90;;;;;;6307008;28;20258;-55
2022/04/20 01:54:25;;;;;;;5.77;5.10;;;7.90;99.90;;;;;;6325236;28;20232;-55
2022/04/20 01:57:28;;;;;;;6.03;5.50;;;7.90;99.90;;;;;;6330751;28;20369;-55
2022/04/20 02:00:31;;;;;;;5.70;5.30;;;7.90;99.90;;;;;;6324451;28;20572;-54
2022/04/20 02:03:33;;;;;;;6.07;5.53;;;7.80;99.90;;;;;;6318693;28;20318;-56
2022/04/20 02:06:37;;;;;;;5.53;5.27;;;7.80;99.90;;;;;;6320067;28;20252;-55
2022/04/20 02:09:39;;;;;;;5.27;4.97;;;7.80;99.90;;;;;;6324156;28;20749;-55
2022/04/20 02:12:42;;;;;;;5.33;5.10;;;7.80;99.90;;;;;;6333352;28;20386;-54
2022/04/20 02:15:45;;;;;;;4.83;4.43;;;7.80;99.90;;;;;;6307681;28;20235;-54
2022/04/20 02:18:48;;;;;;;5.57;5.10;;;7.80;99.90;;;;;;6295253;28;20241;-55
2022/04/20 02:21:58;;;;;;;4.80;4.50;;;7.80;99.90;;;;;;6282616;28;20312;-55
2022/04/20 02:25:00;;;;;;;5.97;5.57;;;7.80;99.90;;;;;;6279040;28;20455;-55
2022/04/20 02:28:04;;;;;;;5.53;5.03;;;7.80;99.90;;;;;;6282227;28;20225;-55
2022/04/20 02:31:06;;;;;;;8.13;6.07;;;7.80;99.90;;;;;;6281882;28;20240;-55
2022/04/20 02:34:09;;;;;;;6.67;6.07;;;7.70;99.90;;;;;;6301002;27;20236;-55
2022/04/20 02:37:13;;;;;;;5.83;4.87;;;7.70;99.90;;;;;;6315756;27;20323;-55
2022/04/20 02:40:16;;;;;;;5.17;4.80;;;7.70;99.90;;;;;;6302706;28;20327;-55
2022/04/20 02:43:19;;;;;;;5.30;4.90;;;7.70;99.90;;;;;;6306145;28;20319;-55
2022/04/20 02:46:23;;;;;;;5.80;5.30;;;7.60;99.90;;;;;;6312729;28;20315;-55
2022/04/20 02:49:26;;;;;;;5.73;5.30;;;7.60;99.90;;;;;;6310307;28;20235;-56
2022/04/20 02:52:30;;;;;;;5.60;5.20;;;7.60;99.90;;;;;;6288805;28;20310;-54
2022/04/20 02:55:33;;;;;;;6.27;5.73;;;7.70;99.90;;;;;;6283868;28;20336;-54
2022/04/20 02:58:36;;;;;;;5.80;5.40;;;7.50;99.90;;;;;;6286457;28;20442;-55
2022/04/20 03:01:38;;;;;;;6.57;5.60;;;7.70;99.90;;;;;;6286764;28;20279;-56
2022/04/20 03:04:41;;;;;;;7.50;5.27;;;7.70;99.90;;;;;;6326830;28;20232;-54
2022/04/20 03:07:45;;;;;;;5.50;5.10;;;7.70;99.90;;;;;;6318286;28;20951;-53
2022/04/20 03:10:48;;;;;;;8.13;5.63;;;7.70;99.90;;;;;;6329608;28;20246;-55
2022/04/20 03:13:51;;;;;;;5.80;5.27;;;7.70;99.90;;;;;;6336490;27;20380;-55
2022/04/20 03:16:53;;;;;;;6.20;5.67;;;7.70;99.90;;;;;;6330811;28;20239;-55
2022/04/20 03:19:56;;;;;;;6.07;5.50;;;7.70;99.90;;;;;;6310854;28;20412;-55
2022/04/20 03:23:01;;;;;;;6.73;6.20;;;7.70;99.90;;;;;;6311613;28;20224;-54
2022/04/20 03:26:06;;;;;;;6.87;5.77;;;7.70;99.90;;;;;;6307943;28;20322;-54
2022/04/20 03:29:09;;;;;;;6.07;5.67;;;7.70;99.90;;;;;;6317618;28;20306;-56
2022/04/20 03:32:13;;;;;;;5.73;5.27;;;7.70;99.90;;;;;;6312069;28;20327;-54
2022/04/20 03:35:16;;;;;;;7.87;6.00;;;7.70;99.90;;;;;;6330502;27;20370;-54
2022/04/20 03:38:21;;;;;;;8.43;5.60;;;7.70;99.90;;;;;;6330953;28;20236;-54
2022/04/20 03:41:24;;;;;;;6.10;5.60;;;7.80;99.90;;;;;;6328689;27;20713;-56
2022/04/20 03:44:27;;;;;;;6.50;5.87;;;7.70;99.90;;;;;;6332897;28;20370;-55
2022/04/20 03:47:30;;;;;;;5.97;5.47;;;7.70;99.90;;;;;;6334228;27;20288;-55
2022/04/20 03:50:32;;;;;;;6.57;6.07;;;7.80;99.90;;;;;;6330717;27;20242;-55
2022/04/20 03:53:36;;;;;;;6.53;5.73;;;7.80;99.90;;;;;;6333750;28;20793;-56
2022/04/20 03:59:56;;;;;;;6.80;6.13;;;7.80;99.90;;;;;;6297668;28;20359;-50
2022/04/20 04:02:58;;;;;;;6.77;6.10;;;7.80;99.90;;;;;;6304682;28;20320;-55
2022/04/20 04:06:01;;;;;;;6.80;6.20;;;7.80;99.90;;;;;;6305773;28;20327;-53
2022/04/20 04:09:05;;;;;;;6.83;6.23;;;7.90;99.90;;;;;;6306275;28;20701;-55
2022/04/20 04:12:09;;;;;;;7.03;6.27;;;7.80;99.90;;;;;;6304750;28;20724;-56
2022/04/20 04:15:12;;;;;;;7.70;6.93;;;7.80;1.00;;;;;;6302465;28;20762;-56
2022/04/20 04:18:14;;;;;;;6.73;6.37;;;7.80;1.00;;;;;;6307804;28;20262;-56
2022/04/20 04:21:17;;;;;;;6.67;6.17;;;7.80;1.00;;;;;;6302889;28;20228;-55
2022/04/20 04:24:36;;;;;;;5.90;5.60;;;7.80;1.00;;;;;;6307447;28;20276;-56
2022/04/20 04:27:39;;;;;;;7.00;6.57;;;7.80;1.00;;;;;;6309073;28;20689;-55
2022/04/20 04:30:42;;;;;;;7.10;6.60;;;7.90;1.00;;;;;;6303536;28;20722;-56
2022/04/20 04:33:45;;;;;;;7.20;6.70;;;7.90;1.00;;;;;;6312898;28;20265;-56
2022/04/20 04:36:47;;;;;;;8.20;7.00;;;8.00;1.00;;;;;;6337186;27;20239;-56
2022/04/20 04:39:51;;;;;;;7.67;7.10;;;8.00;1.00;;;;;;6333456;27;20929;-55
2022/04/20 04:42:54;;;;;;;8.40;7.60;;;8.10;1.00;;;;;;6327858;27;20451;-55
2022/04/20 04:49:17;;;;;;;8.40;7.40;;;8.20;1.00;;;;;;6303662;28;20410;-54
2022/04/20 04:52:20;;;;;;;8.83;7.13;;;8.20;1.00;;;;;;6306609;28;20298;-54
2022/04/20 04:55:24;;;;;;;11.57;7.40;;;8.30;1.00;;;;;;6305039;28;20285;-55
2022/04/20 04:58:27;;;;;;;8.53;7.83;;;8.30;1.00;;;;;;6305857;28;20307;-56
2022/04/20 05:01:30;;;;;;;9.07;8.13;;;8.40;1.00;;;;;;6308155;28;20684;-54
2022/04/20 05:04:32;;;;;;;8.73;7.87;;;8.40;1.00;;;;;;6306996;28;21588;-55
2022/04/20 05:07:35;;;;;;;8.23;7.50;;;8.40;1.00;;;;;;6301459;28;20238;-56
2022/04/20 05:10:39;;;;;;;8.00;7.27;;;8.50;1.00;;;;;;6304953;28;20232;-56
2022/04/20 05:13:42;;;;;;;8.50;7.57;;;8.50;1.00;;;;;;6308426;28;20321;-55
2022/04/20 05:16:45;;;;;;;9.50;7.53;;;8.60;1.00;;;;;;6313665;28;20292;-56
2022/04/20 05:19:47;;;;;;;8.40;7.70;;;8.70;1.00;;;;;;6336107;27;20395;-60
2022/04/20 05:22:50;;;;;;;10.20;7.87;;;8.80;1.00;;;;;;6331959;28;20461;-55
2022/04/20 05:25:54;;;;;;;7.97;7.30;;;8.90;1.00;;;;;;6328948;28;20253;-55
2022/04/20 05:28:57;;;;;;;8.60;7.80;;;9.00;99.90;;;;;;6316367;27;20598;-53
2022/04/20 05:32:00;;;;;;;8.73;7.37;;;9.00;99.90;;;;;;6305185;28;20367;-54
2022/04/20 05:35:03;;;;;;;8.13;7.50;;;9.10;99.90;;;;;;6297011;28;20241;-56
2022/04/20 05:41:43;;;;;;;8.50;7.73;;;9.20;99.90;;;;;;6304201;28;20327;-56
2022/04/20 05:44:46;;;;;;;9.57;7.57;;;9.30;99.90;;;;;;6310167;28;20279;-54
2022/04/20 05:47:49;;;;;;;8.13;7.43;;;9.30;99.90;;;;;;6310450;27;20228;-56
2022/04/20 05:50:52;;;;;;;8.47;7.77;;;9.40;99.90;;;;;;6325032;27;20227;-55
2022/04/20 05:53:55;;;;;;;7.60;7.10;;;9.50;99.90;;;;;;6308603;27;20239;-56
2022/04/20 05:56:59;;;;;;;8.03;7.53;;;9.60;99.90;;;;;;6305310;28;20232;-55
2022/04/20 06:00:02;;;;;;;8.00;7.37;;;9.80;99.90;;;;;;6304641;28;20290;-55
2022/04/20 06:03:04;;;;;;;7.47;6.83;;;9.90;99.90;;;;;;6307436;28;20666;-55
2022/04/20 06:06:07;;;;;;;8.33;7.40;;;10.00;99.90;;;;;;6306186;28;20494;-55
2022/04/20 06:09:11;;;;;;;8.10;7.53;;;9.90;99.90;;;;;;6307078;28;20323;-56
2022/04/20 06:12:15;;;;;;;8.57;7.70;;;9.90;99.90;;;;;;6310813;28;20244;-55
2022/04/20 06:15:17;;;;;;;8.40;7.53;;;9.80;99.90;;;;;;6313533;28;20677;-56
2022/04/20 06:18:21;;;;;;;7.83;7.37;;;9.80;99.90;;;;;;6313388;28;20629;-55
2022/04/20 06:21:23;;;;;;;7.77;7.27;;;10.00;99.90;;;;;;6310173;28;20537;-55
2022/04/20 06:24:26;;;;;;;7.53;6.73;;;10.00;99.90;;;;;;6311149;28;20767;-55
2022/04/20 06:27:31;;;;;;;7.47;6.80;;;10.20;99.90;;;;;;6310288;28;20285;-56
2022/04/20 06:30:33;;;;;;;8.50;7.37;;;10.30;99.90;;;;;;6310181;28;20743;-53
2022/04/20 06:33:36;;;;;;;7.50;7.00;;;10.50;99.90;;;;;;6312854;28;20232;-55
2022/04/20 06:36:39;;;;;;;7.93;7.00;;;10.70;99.90;;;;;;6311547;28;20232;-55
2022/04/20 06:39:42;;;;;;;9.20;7.73;;;10.70;99.90;;;;;;6309067;28;20275;-55
2022/04/20 06:42:47;;;;;;;7.40;6.80;;;10.80;99.90;;;;;;6307193;28;20319;-54
2022/04/20 06:45:49;;;;;;;7.47;6.87;;;10.80;99.90;;;;;;6311477;28;20382;-54
2022/04/20 06:48:52;;;;;;;7.13;6.57;;;10.80;99.90;;;;;;6312354;28;20252;-55
2022/04/20 06:58:39;;;;;;;6.73;6.23;;;10.90;99.90;;;;;;6313628;28;20765;-54
2022/04/20 07:01:42;;;;;;;7.07;6.60;;;11.00;99.90;;;;;;6317571;27;20289;-54
2022/04/20 07:04:45;;;;;;;7.10;6.47;;;11.10;99.90;;;;;;6317540;28;20316;-55
2022/04/20 07:07:47;;;;;;;5.87;5.63;;;11.00;99.90;;;;;;6321054;28;20224;-54
2022/04/20 07:11:00;;;;;;;6.03;5.63;;;11.20;99.90;;;;;;6333906;27;20228;-55
2022/04/20 07:14:04;;;;;;;6.97;6.47;;;11.30;99.90;;;;;;6336574;28;20232;-56
2022/04/20 07:17:07;;;;;;;6.63;6.23;;;11.30;99.90;;;;;;6334932;28;20349;-55
2022/04/20 07:20:17;;;;;;;7.17;6.67;;;10.80;99.90;;;;;;6338086;27;20805;-54
2022/04/20 07:23:20;;;;;;;7.00;6.40;;;11.40;99.90;;;;;;6328120;27;20673;-54
2022/04/20 07:26:23;;;;;;;7.13;6.43;;;11.30;99.90;;;;;;6315750;27;20625;-55
2022/04/20 07:29:27;;;;;;;7.17;6.63;;;11.30;99.90;;;;;;6309822;28;20605;-55
2022/04/20 07:32:29;;;;;;;6.20;5.70;;;11.30;99.90;;;;;;6310619;28;20334;-54
2022/04/20 07:35:36;;;;;;;6.73;6.20;;;11.20;99.90;;;;;;6330510;27;20232;-54
2022/04/20 07:38:39;;;;;;;7.33;5.93;;;11.10;99.90;;;;;;6335134;27;20373;-54
2022/04/20 07:41:42;;;;;;;6.03;5.43;;;11.10;99.90;;;;;;6323069;27;20350;-56
2022/04/20 07:44:46;;;;;;;5.87;5.40;;;11.10;99.90;;;;;;6335613;28;20255;-53
2022/04/20 07:47:49;;;;;;;5.80;5.50;;;11.10;99.90;;;;;;6335190;27;20393;-55
2022/04/20 07:50:52;;;;;;;5.93;5.40;;;11.10;99.90;;;;;;6325580;28;20234;-55
2022/04/20 07:53:54;;;;;;;5.93;5.70;;;11.10;99.90;;;;;;6334921;27;20321;-54
2022/04/20 07:56:57;;;;;;;5.60;5.17;;;11.20;99.90;;;;;;6332285;28;20304;-54
2022/04/20 08:00:01;;;;;;;6.00;5.50;;;11.30;99.90;;;;;;6332465;27;20337;-56
2022/04/20 08:03:12;;;;;;;5.20;4.80;;;11.50;99.90;;;;;;6335453;28;20255;-54
2022/04/20 08:06:15;;;;;;;5.70;5.40;;;11.70;99.90;;;;;;6305099;28;20260;-57
2022/04/20 08:09:19;;;;;;;5.73;5.33;;;11.90;99.90;;;;;;6308571;28;20319;-53
2022/04/20 08:12:23;;;;;;;6.40;5.53;;;12.20;99.90;;;;;;6307338;28;20323;-55
2022/04/20 08:15:27;;;;;;;5.20;4.80;;;12.40;99.90;;;;;;6302536;28;20486;-56
2022/04/20 08:18:30;;;;;;;4.87;4.50;;;12.60;99.90;;;;;;6309579;28;20228;-55
2022/04/20 08:21:33;;;;;;;8.00;5.30;;;12.80;99.90;;;;;;6321780;28;20782;-54
2022/04/20 08:24:36;;;;;;;4.47;4.23;;;12.80;99.90;;;;;;6330650;27;20236;-57
2022/04/20 08:27:39;;;;;;;4.70;4.30;;;12.80;99.90;;;;;;6334316;27;20261;-55
2022/04/20 08:30:44;;;;;;;5.13;4.47;;;12.80;99.90;;;;;;6333011;28;20498;-54
2022/04/20 08:33:47;;;;;;;4.20;4.00;;;12.80;99.90;;;;;;6328000;28;20240;-54
2022/04/20 08:36:50;;;;;;;4.33;4.13;;;12.90;99.90;;;;;;6333074;27;20271;-56
2022/04/20 08:39:53;;;;;;;4.67;3.93;;;13.00;99.90;;;;;;6329964;27;20284;-55
2022/04/20 08:43:00;;;;;;;4.30;4.10;;;13.10;99.90;;;;;;6332218;27;20363;-55
2022/04/20 08:46:06;;;;;;;6.27;4.30;;;13.10;99.90;;;;;;6333694;27;20322;-55
2022/04/20 08:49:10;;;;;;;3.93;3.73;;;13.00;99.90;;;;;;6333025;28;20236;-55
2022/04/20 08:55:38;;;;;;;4.00;3.70;;;13.00;99.90;;;;;;6310287;27;20687;-55
2022/04/20 08:58:47;;;;;;;4.33;3.73;;;13.00;99.90;;;;;;6309975;28;20294;-54
2022/04/20 09:01:51;;;;;;;4.30;4.03;;;12.90;99.90;;;;;;6306080;28;20233;-54
2022/04/20 09:04:54;;;;;;;4.63;4.00;;;13.00;99.90;;;;;;6309226;28;20284;-53
2022/04/20 09:07:58;;;;;;;3.83;3.67;;;12.90;99.90;;;;;;6309676;28;20232;-55
2022/04/20 09:11:01;;;;;;;6.73;3.87;;;13.00;99.90;;;;;;6304931;28;20335;-52
2022/04/20 09:14:13;;;;;;;4.20;4.00;;;12.90;99.90;;;;;;6309473;28;20314;-55
2022/04/20 09:17:19;;;;;;;4.00;3.80;;;12.90;99.90;;;;;;6302117;28;20355;-55
2022/04/20 09:20:21;;;;;;;4.80;4.40;;;12.70;99.90;;;;;;6300816;28;20310;-53
2022/04/20 09:23:28;;;;;;;4.73;4.33;;;12.50;99.90;;;;;;6308695;28;20233;-53
2022/04/20 09:26:31;;;;;;;4.60;3.97;;;12.50;99.90;;;;;;6326805;27;20244;-54
2022/04/20 09:29:34;;;;;;;4.73;4.00;;;12.40;99.90;;;;;;6320944;27;20245;-54
2022/04/20 09:32:39;;;;;;;4.33;4.23;;;12.30;99.90;;;;;;6304892;28;22231;-54
2022/04/20 09:35:43;;;;;;;8.83;4.53;;;12.40;99.90;;;;;;6303484;28;20272;-55
2022/04/20 09:39:03;;;;;;;10.40;5.20;;;12.30;99.90;;;;;;6306238;28;20317;-54
2022/04/20 09:42:09;;;;;;;11.87;5.53;;;12.20;99.90;;;;;;6311484;27;20625;-54
2022/04/20 09:45:12;;;;;;;5.00;4.47;;;12.30;99.90;;;;;;6309777;28;20244;-54
2022/04/20 09:51:39;;;;;;;5.23;4.40;;;12.20;99.90;;;;;;6326739;28;20228;-54
2022/04/20 09:54:51;;;;;;;4.93;4.63;;;12.00;99.90;;;;;;6327690;28;20552;-54
2022/04/20 09:58:09;;;;;;;4.60;4.20;;;12.00;99.90;;;;;;6326374;27;20287;-53
2022/04/20 10:01:25;;;;;;;5.17;4.87;;;12.00;99.90;;;;;;6306552;28;20390;-54
2022/04/20 10:04:30;;;;;;;4.63;4.40;;;12.00;99.90;;;;;;6303379;28;20723;-56
2022/04/20 10:07:32;;;;;;;6.30;4.77;;;12.10;99.90;;;;;;6308727;28;20327;-54
2022/04/20 10:10:35;;;;;;;4.87;4.43;;;12.20;99.90;;;;;;6321666;27;20247;-55
2022/04/20 10:13:39;;;;;;;4.63;4.47;;;12.20;99.90;;;;;;6304030;28;20244;-55
2022/04/20 10:16:46;;;;;;;5.00;4.70;;;12.30;99.90;;;;;;6307807;28;20228;-56
2022/04/20 10:19:51;;;;;;;4.70;4.50;;;12.40;99.90;;;;;;6308566;28;20282;-55
2022/04/20 10:22:55;;;;;;;4.83;4.50;;;12.40;99.90;;;;;;6306433;28;20732;-55
2022/04/20 10:26:00;;;;;;;4.70;4.50;;;12.50;99.90;;;;;;6308709;27;20244;-56
2022/04/20 10:29:10;;;;;;;4.90;4.50;;;12.50;99.90;;;;;;6306335;28;20316;-54
2022/04/20 10:32:19;;;;;;;4.77;4.47;;;12.50;99.90;;;;;;6305970;28;20252;-57
2022/04/20 10:35:23;;;;;;;4.40;4.10;;;12.60;99.90;;;;;;6294654;28;20431;-56
2022/04/20 10:38:27;;;;;;;4.23;4.03;;;12.60;99.90;;;;;;6306270;28;20268;-56
2022/04/20 10:41:30;;;;;;;5.37;4.93;;;12.70;99.90;;;;;;6301205;28;20837;-55
2022/04/20 10:45:00;;;;;;;9.50;4.60;;;12.70;99.90;;;;;;6305883;28;20274;-57
2022/04/20 10:48:03;;;;;;;5.13;4.67;;;12.70;99.90;;;;;;6304936;28;20288;-55
2022/04/20 10:51:14;;;;;;;5.00;4.60;;;12.60;99.90;;;;;;6313638;28;20239;-57
2022/04/20 10:54:24;;;;;;;5.27;4.80;;;12.20;99.90;;;;;;6297546;28;20800;-56
2022/04/20 10:57:34;;;;;;;4.60;4.40;;;12.10;99.90;;;;;;6309094;28;20248;-57
2022/04/20 11:00:38;;;;;;;4.33;4.07;;;12.00;99.90;;;;;;6310941;28;20655;-56
2022/04/20 11:03:53;;;;;;;4.57;4.27;;;11.90;99.90;;;;;;6309179;28;20248;-56
2022/04/20 11:07:22;;;;;;;4.40;4.17;;;11.90;99.90;;;;;;6307859;28;20233;-57
2022/04/20 11:10:24;;;;;;;4.40;4.20;;;12.00;99.90;;;;;;6299906;28;20287;-56
2022/04/20 11:20:25;;;;;;;4.73;4.43;;;12.10;99.90;;;;;;6303053;28;20943;-56
2022/04/20 11:23:58;;;;;;;4.30;4.10;;;12.00;99.90;;;;;;6304789;28;20252;-56
2022/04/20 11:27:02;;;;;;;4.07;3.90;;;12.00;99.90;;;;;;6315041;28;20242;-56
2022/04/20 11:30:06;;;;;;;4.37;4.17;;;12.10;99.90;;;;;;6330708;27;20313;-55
2022/04/20 11:33:11;;;;;;;9.10;4.20;;;12.30;99.90;;;;;;6324514;27;20233;-55
2022/04/20 11:36:15;;;;;;;4.70;4.20;;;12.30;99.90;;;;;;6309285;28;20237;-55
2022/04/20 11:39:20;;;;;;;4.60;4.40;;;12.30;99.90;;;;;;6304540;28;20328;-56
2022/04/20 11:42:23;;;;;;;5.03;4.53;;;12.30;99.90;;;;;;6304657;28;20290;-54
2022/04/20 11:45:32;;;;;;;4.60;4.40;;;12.50;99.90;;;;;;6336166;28;20300;-55
2022/04/20 11:48:36;;;;;;;4.30;4.10;;;12.50;99.90;;;;;;6334743;27;20260;-54
2022/04/20 11:51:44;;;;;;;4.23;4.03;;;12.60;99.90;;;;;;6328915;28;20300;-55
2022/04/20 11:54:48;;;;;;;5.60;4.73;;;12.80;99.90;;;;;;6334179;27;20783;-56
2022/04/20 11:57:52;;;;;;;4.90;4.60;;;12.80;99.90;;;;;;6331386;27;20311;-56
2022/04/20 12:01:02;;;;;;;4.63;4.23;;;12.90;99.90;;;;;;6334873;28;20320;-56
2022/04/20 12:04:13;;;;;;;4.20;4.10;;;13.00;99.90;;;;;;6331095;28;20232;-56
2022/04/20 12:07:17;;;;;;;4.23;4.03;;;13.10;99.90;;;;;;6333596;27;20744;-55
2022/04/20 12:10:21;;;;;;;4.83;4.63;;;13.30;99.90;;;;;;6324312;27;20801;-55
2022/04/20 12:13:29;;;;;;;5.10;4.60;;;13.40;99.90;;;;;;6308432;27;20228;-56
2022/04/20 12:16:34;;;;;;;4.43;4.13;;;13.50;99.90;;;;;;6309755;28;20324;-55
2022/04/20 12:19:38;;;;;;;4.43;4.03;;;13.70;99.90;;;;;;6306878;28;20406;-56
2022/04/20 12:22:40;;;;;;;4.20;3.93;;;13.70;99.90;;;;;;6303737;28;20237;-55
2022/04/20 12:25:51;;;;;;;4.83;4.30;;;13.80;99.90;;;;;;6306170;28;20340;-56
2022/04/20 12:28:59;;;;;;;4.03;3.83;;;14.00;99.90;;;;;;6315518;28;20236;-54
2022/04/20 12:32:02;;;;;;;4.80;4.50;;;14.10;99.90;;;;;;6330792;28;20307;-56
2022/04/20 12:35:06;;;;;;;4.43;4.13;;;14.20;99.90;;;;;;6331177;28;20315;-55
2022/04/20 12:38:10;;;;;;;4.63;4.23;;;14.40;99.90;;;;;;6333397;27;20319;-56
2022/04/20 12:41:41;;;;;;;4.50;4.30;;;14.60;99.90;;;;;;6331158;27;20261;-55
2022/04/20 12:44:51;;;;;;;5.37;4.97;;;14.70;99.90;;;;;;6331009;28;20224;-56
2022/04/20 12:48:03;;;;;;;5.67;5.00;;;14.70;99.90;;;;;;6328583;28;20274;-55
2022/04/20 12:51:07;;;;;;;8.60;5.03;;;14.60;99.90;;;;;;6331152;27;20381;-56
2022/04/20 12:54:10;;;;;;;5.57;5.13;;;14.70;99.90;;;;;;6332843;28;20311;-55
2022/04/20 13:04:03;;;;;;;5.10;4.70;;;14.90;99.90;;;;;;6307501;28;20225;-55
2022/04/20 13:07:06;;;;;;;9.80;4.67;;;15.10;99.90;;;;;;6305974;28;20393;-55
2022/04/20 13:10:10;;;;;;;5.13;4.80;;;15.00;99.90;;;;;;6307572;28;20709;-56
2022/04/20 13:13:14;;;;;;;4.50;4.10;;;15.10;99.90;;;;;;6307009;28;20289;-54
2022/04/20 13:16:17;;;;;;;5.00;4.60;;;15.30;99.90;;;;;;6307290;28;20633;-56
2022/04/20 13:19:20;;;;;;;4.60;4.23;;;15.20;99.90;;;;;;6299288;28;20600;-55
2022/04/20 13:22:22;;;;;;;4.70;4.50;;;15.20;99.90;;;;;;6307225;28;20394;-55
2022/04/20 13:28:48;;;;;;;5.33;4.27;;;15.10;99.90;;;;;;6302931;28;20252;-57
2022/04/20 13:31:52;;;;;;;4.43;4.23;;;15.10;99.90;;;;;;6308041;28;20232;-55
2022/04/20 13:34:54;;;;;;;4.33;4.13;;;15.10;99.90;;;;;;6301067;28;20233;-56
2022/04/20 13:37:58;;;;;;;5.47;3.93;;;15.00;99.90;;;;;;6304593;28;20229;-56
2022/04/20 13:41:01;;;;;;;4.50;4.20;;;14.90;99.90;;;;;;6304144;28;20728;-56
2022/04/20 13:44:06;;;;;;;4.90;4.53;;;14.90;99.90;;;;;;6311399;28;20293;-56
2022/04/20 13:47:08;;;;;;;4.13;3.83;;;14.70;99.90;;;;;;6312433;27;20552;-55
2022/04/20 13:50:11;;;;;;;4.83;4.50;;;14.60;99.90;;;;;;6320088;27;20527;-55
2022/04/20 13:53:14;;;;;;;4.50;4.10;;;14.50;99.90;;;;;;6307182;28;20277;-54
2022/04/20 13:56:17;;;;;;;5.33;3.83;;;14.50;99.90;;;;;;6293257;28;20531;-54
2022/04/20 13:59:21;;;;;;;4.47;4.17;;;14.40;99.90;;;;;;6306199;28;20232;-55
2022/04/20 14:02:23;;;;;;;4.30;3.97;;;14.40;99.90;;;;;;6300101;28;20324;-56
2022/04/20 14:05:27;;;;;;;4.10;3.90;;;14.60;99.90;;;;;;6300307;28;20233;-56
2022/04/20 14:08:30;;;;;;;4.53;4.23;;;14.60;99.90;;;;;;6305730;28;20286;-55
2022/04/20 14:11:33;;;;;;;4.30;4.00;;;14.80;99.90;;;;;;6303119;28;20236;-56
2022/04/20 14:14:37;;;;;;;4.77;4.50;;;15.00;99.90;;;;;;6325795;28;20434;-55
2022/04/20 14:17:42;;;;;;;4.83;4.37;;;15.10;99.90;;;;;;6331501;28;20244;-55
2022/04/20 14:20:46;;;;;;;4.17;3.83;;;15.10;99.90;;;;;;6331146;28;20834;-56
2022/04/20 14:23:49;;;;;;;3.40;3.30;;;15.10;99.90;;;;;;6325726;28;20236;-54
2022/04/20 14:33:34;;;;;;;5.47;3.70;;;15.70;99.90;;;;;;6335339;28;20243;-54
2022/04/20 14:36:37;;;;;;;3.50;3.10;;;15.80;99.90;;;;;;6333964;28;20574;-56
2022/04/20 14:39:41;;;;;;;3.43;3.33;;;15.90;99.90;;;;;;6330093;27;20751;-56
2022/04/20 14:42:44;;;;;;;3.57;3.37;;;16.00;99.90;;;;;;6337310;27;20304;-57
2022/04/20 14:45:49;;;;;;;3.50;3.27;;;16.10;99.90;;;;;;6337312;27;20290;-54
2022/04/20 14:48:51;;;;;;;3.47;3.23;;;16.20;99.90;;;;;;6340186;27;20231;-56
2022/04/20 14:51:54;;;;;;;5.80;3.57;;;16.30;99.90;;;;;;6332305;28;20285;-55
2022/04/20 14:54:57;;;;;;;3.60;3.30;;;16.30;99.90;;;;;;6333699;28;20411;-55
2022/04/20 14:58:17;;;;;;;3.60;3.30;;;16.40;99.90;;;;;;6331603;27;20713;-54
2022/04/20 15:01:22;;;;;;;3.30;3.10;;;16.40;99.90;;;;;;6336904;27;20434;-54
2022/04/20 15:04:25;;;;;;;3.50;3.20;;;16.20;99.90;;;;;;6336001;27;20240;-55
2022/04/20 15:07:28;;;;;;;5.73;3.20;;;16.10;99.90;;;;;;6335940;28;20730;-54
2022/04/20 15:10:32;;;;;;;3.33;3.00;;;16.20;99.90;;;;;;6335655;27;20231;-53
2022/04/20 15:13:35;;;;;;;3.23;3.10;;;16.10;99.90;;;;;;6338805;27;20910;-55
2022/04/20 15:16:39;;;;;;;3.53;3.33;;;16.20;99.90;;;;;;6329896;28;20239;-55
2022/04/20 15:19:42;;;;;;;4.57;3.20;;;16.10;99.90;;;;;;6333636;27;20243;-55
2022/04/20 15:22:45;;;;;;;3.30;3.17;;;16.10;99.90;;;;;;6307976;28;20356;-56
2022/04/20 15:25:48;;;;;;;5.30;3.13;;;16.00;99.90;;;;;;6299718;27;20228;-52
2022/04/20 15:28:52;;;;;;;3.03;3.00;;;15.70;99.90;;;;;;6337263;27;20227;-56
2022/04/20 15:32:04;;;;;;;4.53;3.60;;;15.60;99.90;;;;;;6336343;27;20651;-55
2022/04/20 15:35:09;;;;;;;3.57;3.10;;;15.40;99.90;;;;;;6332698;27;20814;-55
2022/04/20 15:38:12;;;;;;;3.17;3.00;;;15.20;99.90;;;;;;6335600;27;20642;-57
2022/04/20 15:41:15;;;;;;;3.23;2.67;;;15.10;99.90;;;;;;6331568;27;20232;-54
2022/04/20 15:44:18;;;;;;;4.10;3.07;;;15.00;99.90;;;;;;6332634;27;20314;-54
2022/04/20 15:47:22;;;;;;;3.00;2.90;;;15.00;99.90;;;;;;6335297;27;20327;-54
2022/04/20 15:50:25;;;;;;;4.07;2.97;;;15.10;99.90;;;;;;6326336;28;20520;-55
2022/04/20 15:53:28;;;;;;;3.33;3.00;;;15.20;99.90;;;;;;6334151;27;20245;-55
2022/04/20 16:03:16;;;;;;;3.03;2.93;;;15.10;99.90;;;;;;6329396;27;20228;-56
2022/04/20 16:06:20;;;;;;;2.83;2.73;;;15.20;99.90;;;;;;6333805;28;20232;-55
2022/04/20 16:09:23;;;;;;;3.00;2.80;;;15.10;99.90;;;;;;6339244;27;20466;-56
2022/04/20 16:12:26;;;;;;;3.30;2.93;;;15.10;99.90;;;;;;6326947;27;20353;-55
2022/04/20 16:15:29;;;;;;;3.43;2.80;;;15.00;99.90;;;;;;6343400;27;21595;-55
2022/04/20 16:18:33;;;;;;;3.10;2.90;;;14.80;99.90;;;;;;6333235;28;20338;-55
2022/04/20 16:21:36;;;;;;;3.07;2.80;;;14.70;99.90;;;;;;6331123;27;20327;-56
2022/04/20 16:24:39;;;;;;;3.10;2.90;;;14.60;99.90;;;;;;6331081;27;20315;-57
2022/04/20 16:27:41;;;;;;;2.97;2.80;;;14.50;99.90;;;;;;6336873;27;20372;-56
2022/04/20 16:30:45;;;;;;;4.37;3.30;;;14.50;99.90;;;;;;6328831;28;20419;-56
2022/04/20 16:33:49;;;;;;;3.10;2.90;;;14.40;99.90;;;;;;6334855;27;20532;-55
2022/04/20 16:36:54;;;;;;;3.23;3.10;;;14.30;99.90;;;;;;6337216;27;20645;-55
2022/04/20 16:39:57;;;;;;;4.60;3.47;;;14.30;99.90;;;;;;6330778;28;20357;-55
2022/04/20 16:43:01;;;;;;;3.10;3.03;;;14.20;99.90;;;;;;6333463;27;20277;-54
2022/04/20 16:46:04;;;;;;;4.20;3.10;;;14.20;99.90;;;;;;6334571;28;20413;-55
2022/04/20 16:49:09;;;;;;;3.00;2.80;;;14.10;99.90;;;;;;6334488;27;20239;-60
2022/04/20 16:52:13;;;;;;;3.13;2.97;;;14.10;99.90;;;;;;6332853;27;20768;-55
2022/04/20 16:55:16;;;;;;;3.27;3.07;;;14.00;99.90;;;;;;6331985;27;20292;-54
2022/04/20 16:58:19;;;;;;;3.43;3.10;;;13.90;99.90;;;;;;6333699;28;20756;-54
2022/04/20 17:01:22;;;;;;;3.20;3.10;;;13.80;99.90;;;;;;6332563;27;20727;-55